Time;durP1;ratioP1;P1;durP2;ratioP2;P2;SDS_P1;SDS_P2;PMS_P1;PMS_P2;Temp;Humidity;BMP_temperature;BMP_pressure;BME280_temperature;BME280_humidity;BME280_pressure;Samples;Min_cycle;Max_cycle;Signal;HPM_P1;HPM_P2
2022/08/29 00:02:25;;;;;;;11.35;6.87;;;;;;;21.75;67.03;99989.64;1639184;86;25632;-68
2022/08/29 00:04:51;;;;;;;8.70;7.58;;;;;;;21.70;67.21;99987.27;1640284;86;27314;-68
2022/08/29 00:07:24;;;;;;;11.15;7.35;;;;;;;21.67;67.63;99977.64;1640643;86;25809;-68
2022/08/29 00:09:50;;;;;;;8.73;6.58;;;;;;;21.65;68.43;99976.66;1655789;85;25706;-69
2022/08/29 00:12:16;;;;;;;7.58;6.55;;;;;;;21.60;68.70;99972.91;1647623;86;25718;-69
2022/08/29 00:14:43;;;;;;;9.63;7.12;;;;;;;21.55;68.46;99978.20;1648406;86;25665;-68
2022/08/29 00:17:09;;;;;;;11.53;7.62;;;;;;;21.53;68.40;99975.06;1643144;86;28390;-69
2022/08/29 00:19:35;;;;;;;8.65;6.83;;;;;;;21.54;68.68;99974.47;1651638;85;25794;-68
2022/08/29 00:22:01;;;;;;;7.53;6.78;;;;;;;21.51;68.47;99971.92;1649341;85;25407;-68
2022/08/29 00:24:29;;;;;;;7.60;6.80;;;;;;;21.48;68.68;99978.20;1640135;86;25741;-68
2022/08/29 00:26:55;;;;;;;11.05;7.35;;;;;;;21.47;68.68;99982.16;1639215;86;25815;-68
2022/08/29 00:29:21;;;;;;;8.80;7.65;;;;;;;21.43;68.86;99973.06;1630183;86;28022;-68
2022/08/29 00:31:48;;;;;;;8.15;7.20;;;;;;;21.39;68.93;99962.05;1644099;86;25656;-69
2022/08/29 00:34:14;;;;;;;9.45;7.60;;;;;;;21.37;69.21;99958.91;1670212;84;25516;-68
2022/08/29 00:36:40;;;;;;;10.85;7.75;;;;;;;21.34;69.22;99956.94;1640063;86;25601;-68
2022/08/29 00:39:06;;;;;;;9.60;6.60;;;;;;;21.31;69.49;99949.46;1645930;84;25351;-68
2022/08/29 00:41:32;;;;;;;8.25;6.90;;;;;;;21.29;69.53;99946.32;1646618;86;27398;-68
2022/08/29 00:43:59;;;;;;;8.50;7.35;;;;;;;21.26;69.63;99959.47;1645363;84;25621;-68
2022/08/29 00:46:37;;;;;;;9.40;7.53;;;;;;;21.18;70.03;99960.06;1646407;86;25778;-68
2022/08/29 00:49:18;;;;;;;8.75;7.60;;;;;;;21.08;69.80;99962.97;1638827;86;25626;-68
2022/08/29 00:51:46;;;;;;;13.05;7.95;;;;;;;21.00;69.98;99972.96;1647013;86;25691;-68
2022/08/29 00:54:14;;;;;;;10.93;7.42;;;;;;;20.90;70.52;99960.74;1637650;86;27260;-68
2022/08/29 00:56:43;;;;;;;9.23;7.10;;;;;;;20.87;70.79;99958.77;1647936;86;25791;-68
2022/08/29 00:59:23;;;;;;;10.95;7.90;;;;;;;20.83;71.34;99958.75;1649547;85;25574;-68
2022/08/29 01:01:50;;;;;;;8.90;7.45;;;;;;;20.84;71.45;99955.41;1647700;86;25743;-68
2022/08/29 01:04:17;;;;;;;9.53;7.83;;;;;;;20.81;71.35;99961.11;1640259;86;25747;-68
2022/08/29 01:06:44;;;;;;;9.40;7.90;;;;;;;20.79;71.46;99970.33;1654834;85;27391;-69
2022/08/29 01:09:12;;;;;;;9.08;8.18;;;;;;;20.78;71.83;99976.22;1669862;85;25880;-68
2022/08/29 01:14:26;;;;;;;11.30;8.48;;;;;;;20.71;72.00;99991.48;1634438;86;25689;-67
2022/08/29 01:16:57;;;;;;;11.30;8.33;;;;;;;20.65;72.47;99995.79;1638350;86;25459;-67
2022/08/29 01:19:32;;;;;;;9.78;8.75;;;;;;;20.56;72.91;99991.18;1630013;86;27412;-67
2022/08/29 01:22:37;;;;;;;11.05;9.10;;;;;;;20.48;73.39;99988.99;1640192;85;25425;-67
2022/08/29 01:25:08;;;;;;;14.23;9.10;;;;;;;20.41;73.81;99987.55;1650221;86;25819;-66
2022/08/29 01:27:38;;;;;;;11.15;9.23;;;;;;;20.36;73.87;99981.64;1644883;86;25608;-66
2022/08/29 01:30:07;;;;;;;12.35;10.08;;;;;;;20.34;74.23;99986.14;1637108;86;25863;-67
2022/08/29 01:32:33;;;;;;;11.80;9.77;;;;;;;20.29;74.57;99985.13;1635436;86;27309;-67
2022/08/29 01:34:59;;;;;;;15.58;10.93;;;;;;;20.27;74.98;99983.36;1643513;86;25472;-69
2022/08/29 01:37:30;;;;;;;16.17;10.50;;;;;;;20.26;75.43;99981.20;1642126;85;25648;-69
2022/08/29 01:39:56;;;;;;;13.80;11.05;;;;;;;20.24;75.16;99974.50;1639514;86;26257;-69
2022/08/29 01:42:23;;;;;;;13.90;10.88;;;;;;;20.24;75.33;99974.50;1646359;86;25763;-69
2022/08/29 01:44:55;;;;;;;16.02;11.60;;;;;;;20.24;75.43;99978.03;1641829;84;27501;-69
2022/08/29 01:47:25;;;;;;;14.73;11.73;;;;;;;20.25;75.97;99975.50;1641030;86;25973;-67
2022/08/29 01:49:52;;;;;;;12.70;9.60;;;;;;;20.24;76.31;99972.54;1637071;86;25619;-68
2022/08/29 01:52:19;;;;;;;14.63;11.22;;;;;;;20.25;76.00;99969.23;1646047;86;26259;-67
2022/08/29 01:54:46;;;;;;;19.87;11.33;;;;;;;20.28;76.53;99966.50;1648932;85;25817;-67
2022/08/29 01:57:15;;;;;;;14.58;11.43;;;;;;;20.29;76.14;99964.53;1646622;86;27313;-67
2022/08/29 01:59:42;;;;;;;20.27;12.20;;;;;;;20.31;76.23;99967.68;1632085;86;26911;-67
2022/08/29 02:02:23;;;;;;;14.53;11.03;;;;;;;20.31;76.42;99961.63;1640095;86;25853;-68
2022/08/29 02:04:49;;;;;;;14.70;10.85;;;;;;;20.31;76.27;99969.05;1640686;85;25735;-68
2022/08/29 02:07:19;;;;;;;16.07;11.25;;;;;;;20.31;76.37;99960.25;1645891;86;25744;-68
2022/08/29 02:09:47;;;;;;;16.67;11.63;;;;;;;20.31;76.38;99965.74;1637474;86;27968;-68
2022/08/29 02:12:15;;;;;;;14.55;11.55;;;;;;;20.29;76.41;99962.56;1639076;86;25483;-68
2022/08/29 02:14:43;;;;;;;15.48;11.28;;;;;;;20.28;76.66;99967.09;1655916;84;25789;-67
2022/08/29 02:17:10;;;;;;;16.57;11.43;;;;;;;20.24;76.96;99961.55;1632798;86;25733;-67
2022/08/29 02:19:38;;;;;;;13.22;11.40;;;;;;;20.23;77.24;99963.34;1658066;85;25990;-67
2022/08/29 02:22:06;;;;;;;14.47;11.28;;;;;;;20.22;76.89;99969.98;1640149;86;27397;-67
2022/08/29 02:24:32;;;;;;;14.58;11.85;;;;;;;20.21;77.34;99968.40;1639689;86;25521;-67
2022/08/29 02:26:59;;;;;;;13.75;11.45;;;;;;;20.20;77.35;99973.70;1640102;86;25612;-67
2022/08/29 02:29:28;;;;;;;13.53;11.93;;;;;;;20.19;77.51;99977.61;1641466;85;25915;-67
2022/08/29 02:31:54;;;;;;;17.50;12.30;;;;;;;20.17;77.43;99981.33;1663533;85;25760;-67
2022/08/29 02:34:20;;;;;;;15.20;12.43;;;;;;;20.15;77.99;99981.70;1640435;86;27382;-67
2022/08/29 02:36:47;;;;;;;16.00;12.23;;;;;;;20.12;78.03;99987.36;1631183;86;25764;-67
2022/08/29 02:39:13;;;;;;;15.13;13.18;;;;;;;20.08;78.00;99989.30;1640983;86;25806;-68
2022/08/29 02:41:40;;;;;;;18.32;13.03;;;;;;;20.07;78.25;99993.80;1604123;86;25803;-68
2022/08/29 02:44:06;;;;;;;18.90;13.50;;;;;;;20.07;78.54;100001.44;1639634;85;25554;-68
2022/08/29 02:46:32;;;;;;;22.07;14.93;;;;;;;20.07;78.84;100007.53;1638332;86;27404;-68
2022/08/29 02:48:59;;;;;;;16.93;14.00;;;;;;;20.05;79.03;100007.13;1644734;86;25508;-68
2022/08/29 02:51:30;;;;;;;18.80;13.50;;;;;;;20.01;79.01;100008.47;1643080;86;25598;-68
2022/08/29 02:53:58;;;;;;;17.23;13.85;;;;;;;20.00;79.81;100013.75;1649446;86;26389;-68
2022/08/29 02:56:24;;;;;;;17.95;14.40;;;;;;;19.97;79.50;100009.01;1640645;86;25451;-68
2022/08/29 02:58:51;;;;;;;21.90;14.13;;;;;;;19.93;79.59;100009.58;1649664;86;27335;-67
2022/08/29 03:01:21;;;;;;;24.47;14.73;;;;;;;19.90;79.99;100011.14;1654749;85;25472;-67
2022/08/29 03:03:49;;;;;;;20.60;14.63;;;;;;;19.88;79.97;100020.31;1640920;86;25427;-67
2022/08/29 03:06:17;;;;;;;18.90;14.35;;;;;;;19.88;80.38;100025.02;1640105;85;25726;-67
2022/08/29 03:08:43;;;;;;;18.90;15.20;;;;;;;19.90;80.37;100025.42;1651736;85;25780;-68
2022/08/29 03:11:10;;;;;;;19.23;15.90;;;;;;;19.91;80.63;100022.30;1651493;86;28031;-68
2022/08/29 03:13:39;;;;;;;22.55;16.48;;;;;;;19.95;80.57;100029.19;1641044;86;25517;-68
2022/08/29 03:16:05;;;;;;;;;;;;;;;19.96;80.82;100029.41;1645214;85;25651;-68
2022/08/29 03:18:32;;;;;;;22.40;16.50;;;;;;;19.96;81.14;100028.03;1622366;86;25959;-68
2022/08/29 03:20:58;;;;;;;18.98;15.32;;;;;;;19.92;81.00;100034.88;1645049;85;25426;-68
2022/08/29 03:23:25;;;;;;;23.47;16.27;;;;;;;19.91;81.16;100033.87;1636346;86;27335;-68
2022/08/29 03:25:51;;;;;;;21.52;16.82;;;;;;;19.91;81.36;100034.66;1652301;86;25607;-68
2022/08/29 03:28:17;;;;;;;24.77;18.07;;;;;;;19.91;81.29;100037.98;1638190;86;25854;-68
2022/08/29 03:30:44;;;;;;;23.35;17.07;;;;;;;19.91;81.63;100036.62;1651289;86;25805;-68
2022/08/29 03:33:10;;;;;;;24.37;18.05;;;;;;;19.90;81.73;100037.21;1639185;86;25627;-68
2022/08/29 03:35:36;;;;;;;27.25;17.45;;;;;;;19.93;81.97;100031.53;1649062;84;27657;-68
2022/08/29 03:38:03;;;;;;;27.30;19.02;;;;;;;19.96;81.79;100037.05;1640350;86;25885;-68
2022/08/29 03:40:29;;;;;;;25.85;18.77;;;;;;;19.99;81.92;100031.97;1641149;86;25678;-68
2022/08/29 03:42:55;;;;;;;26.90;18.98;;;;;;;19.99;82.00;100041.01;1636422;86;25614;-68
2022/08/29 03:45:24;;;;;;;29.10;19.27;;;;;;;20.01;82.24;100038.66;1652282;86;25639;-68
2022/08/29 03:47:52;;;;;;;31.33;19.53;;;;;;;20.05;82.13;100037.32;1643169;85;27332;-68
2022/08/29 03:50:20;;;;;;;30.27;19.67;;;;;;;20.07;82.31;100036.35;1637322;86;25423;-68
2022/08/29 03:52:47;;;;;;;26.40;19.42;;;;;;;20.10;82.40;100038.34;1622535;86;25679;-68
2022/08/29 03:55:15;;;;;;;31.80;20.52;;;;;;;20.09;82.14;100036.19;1640347;86;25869;-68
2022/08/29 03:57:44;;;;;;;30.10;20.43;;;;;;;20.11;82.16;100042.09;1638405;86;25629;-68
2022/08/29 04:00:15;;;;;;;32.63;21.23;;;;;;;20.13;82.26;100043.08;1647373;86;27332;-68
2022/08/29 04:02:46;;;;;;;35.35;20.88;;;;;;;20.13;82.42;100039.74;1655010;85;25661;-68
2022/08/29 04:05:16;;;;;;;31.87;20.55;;;;;;;20.12;82.28;100039.52;1645561;85;25454;-69
2022/08/29 04:07:54;;;;;;;32.00;20.10;;;;;;;20.13;82.34;100042.48;1629726;86;25805;-69
2022/08/29 04:10:29;;;;;;;34.63;21.10;;;;;;;20.17;82.37;100041.73;1643099;85;25566;-69
2022/08/29 04:12:56;;;;;;;35.48;22.52;;;;;;;20.18;82.58;100043.32;1642891;85;27323;-69
2022/08/29 04:15:25;;;;;;;35.83;23.27;;;;;;;20.20;82.60;100043.73;1640281;86;25390;-69
2022/08/29 04:17:58;;;;;;;30.43;21.48;;;;;;;20.21;82.66;100045.28;1646946;86;25785;-69
2022/08/29 04:20:29;;;;;;;33.73;22.80;;;;;;;20.23;82.73;100047.09;1651636;86;25626;-69
2022/08/29 04:22:58;;;;;;;31.05;22.35;;;;;;;20.24;82.91;100045.30;1644445;85;25793;-69
2022/08/29 04:25:27;;;;;;;32.63;22.58;;;;;;;20.25;82.88;100046.89;1636012;86;27333;-69
2022/08/29 04:27:55;;;;;;;34.67;23.00;;;;;;;20.25;82.85;100045.52;1632778;86;25711;-67
2022/08/29 04:30:24;;;;;;;39.45;23.98;;;;;;;20.28;83.12;100052.23;1632851;86;25450;-67
2022/08/29 04:32:51;;;;;;;40.40;23.40;;;;;;;20.29;83.27;100054.56;1632233;86;25640;-69
2022/08/29 04:35:17;;;;;;;33.23;22.50;;;;;;;20.29;83.06;100054.56;1642586;86;25555;-67
2022/08/29 04:37:44;;;;;;;36.80;22.85;;;;;;;20.31;83.05;100057.74;1647531;86;27391;-69
2022/08/29 04:40:15;;;;;;;36.77;22.10;;;;;;;20.33;83.21;100065.61;1645523;86;25687;-69
2022/08/29 04:42:42;;;;;;;33.23;22.32;;;;;;;20.34;83.29;100053.43;1626926;86;25543;-70
2022/08/29 04:45:13;;;;;;;32.48;21.02;;;;;;;20.36;83.38;100057.95;1635099;86;26356;-69
2022/08/29 04:47:41;;;;;;;34.98;22.70;;;;;;;20.40;83.40;100057.41;1650946;85;25520;-67
2022/08/29 04:50:11;;;;;;;36.55;23.40;;;;;;;20.41;83.35;100056.22;1645074;85;27420;-72
2022/08/29 04:52:37;;;;;;;36.33;22.93;;;;;;;20.44;83.50;100061.55;1651593;85;25704;-67
2022/08/29 04:55:07;;;;;;;36.55;24.65;;;;;;;20.46;83.77;100068.23;1641272;86;25680;-66
2022/08/29 04:57:37;;;;;;;38.75;25.20;;;;;;;20.49;83.72;100059.23;1648389;86;25789;-66
2022/08/29 05:00:11;;;;;;;41.48;25.72;;;;;;;20.51;83.73;100064.34;1659220;86;26009;-69
2022/08/29 05:02:36;;;;;;;33.75;23.55;;;;;;;20.53;83.81;100064.74;1623140;86;27194;-69
2022/08/29 05:05:05;;;;;;;36.23;25.65;;;;;;;20.55;83.69;100058.30;1646454;85;25851;-69
2022/08/29 05:07:31;;;;;;;;;;;;;;;20.57;83.81;100057.33;1640099;86;25715;-67
2022/08/29 05:10:03;;;;;;;31.90;23.45;;;;;;;20.59;83.99;100064.60;1644895;86;25736;-67
2022/08/29 05:12:32;;;;;;;35.30;24.18;;;;;;;20.61;83.77;100068.34;1638006;86;25585;-68
2022/08/29 05:14:59;;;;;;;;;;;;;;;20.64;83.98;100066.23;1652006;86;27260;-68
2022/08/29 05:17:26;;;;;;;38.20;24.02;;;;;;;20.66;84.17;100065.27;1641022;86;25782;-69
2022/08/29 05:19:53;;;;;;;32.63;24.85;;;;;;;20.69;84.08;100068.03;1631346;86;25808;-69
2022/08/29 05:22:20;;;;;;;35.50;24.00;;;;;;;20.71;83.96;100062.16;1623885;87;25707;-69
2022/08/29 05:24:48;;;;;;;33.38;23.55;;;;;;;20.72;83.99;100066.46;1609333;87;25458;-70
2022/08/29 05:27:19;;;;;;;30.88;23.57;;;;;;;20.72;83.89;100069.20;1595625;89;27433;-69
2022/08/29 05:29:48;;;;;;;35.10;22.40;;;;;;;20.71;83.75;100067.05;1610902;88;25474;-69
2022/08/29 05:32:16;;;;;;;31.45;21.62;;;;;;;20.71;83.76;100067.05;1611327;88;25643;-68
2022/08/29 05:34:44;;;;;;;29.18;21.02;;;;;;;20.71;83.92;100066.28;1585058;89;26379;-68
2022/08/29 05:37:15;;;;;;;33.23;22.52;;;;;;;20.70;84.04;100064.69;1597798;88;25732;-68
2022/08/29 05:39:42;;;;;;;29.30;20.92;;;;;;;20.72;84.25;100071.95;1590463;88;27349;-68
2022/08/29 05:42:11;;;;;;;24.72;18.82;;;;;;;20.71;84.23;100070.40;1587154;88;25818;-68
2022/08/29 05:44:39;;;;;;;20.77;17.35;;;;;;;20.71;84.19;100074.52;1599231;87;25504;-68
2022/08/29 05:47:09;;;;;;;23.32;15.95;;;;;;;20.69;84.19;100077.65;1619777;86;25573;-68
2022/08/29 05:49:38;;;;;;;20.25;14.25;;;;;;;20.64;84.08;100073.89;1624838;86;25728;-68
2022/08/29 05:52:06;;;;;;;16.93;12.47;;;;;;;20.62;83.85;100081.73;1636205;86;29554;-68
2022/08/29 05:54:35;;;;;;;12.70;9.30;;;;;;;20.60;84.21;100078.55;1641639;85;25870;-68
2022/08/29 05:57:02;;;;;;;10.90;9.35;;;;;;;20.51;83.56;100086.33;1637452;86;25704;-68
2022/08/29 05:59:28;;;;;;;11.95;9.55;;;;;;;20.45;83.56;100081.77;1641397;85;25620;-69
2022/08/29 06:01:54;;;;;;;9.00;7.47;;;;;;;20.39;83.67;100086.62;1640023;85;25730;-69
2022/08/29 06:04:20;;;;;;;14.65;9.20;;;;;;;20.35;83.60;100089.35;1637966;85;27532;-67
2022/08/29 06:06:46;;;;;;;9.20;7.12;;;;;;;20.32;84.47;100096.38;1651152;84;25515;-67
2022/08/29 06:09:13;;;;;;;6.62;5.50;;;;;;;20.28;84.05;100090.08;1655081;85;25739;-67
2022/08/29 06:11:40;;;;;;;6.28;5.67;;;;;;;20.24;83.72;100096.11;1642642;84;26392;-67
2022/08/29 06:14:06;;;;;;;6.47;5.75;;;;;;;20.20;83.47;100098.64;1653938;85;25813;-69
2022/08/29 06:16:33;;;;;;;6.37;5.33;;;;;;;20.18;83.71;100095.49;1653371;84;27344;-67
2022/08/29 06:19:00;;;;;;;6.45;5.17;;;;;;;20.13;83.65;100096.62;1656773;85;27276;-67
2022/08/29 06:21:26;;;;;;;6.67;5.20;;;;;;;20.13;83.65;100097.98;1652503;84;25885;-68
2022/08/29 06:23:54;;;;;;;6.85;5.42;;;;;;;20.09;83.70;100106.20;1649994;85;25756;-67
2022/08/29 06:26:20;;;;;;;5.80;4.95;;;;;;;20.10;83.89;100113.84;1647197;85;25698;-68
2022/08/29 06:28:47;;;;;;;5.30;4.65;;;;;;;20.05;83.73;100110.07;1642586;86;27447;-67
2022/08/29 06:31:21;;;;;;;6.95;5.83;;;;;;;20.02;83.92;100113.56;1661557;85;25905;-67
2022/08/29 06:33:53;;;;;;;8.85;5.20;;;;;;;20.02;84.11;100118.46;1663843;84;26428;-69
2022/08/29 06:36:20;;;;;;;7.30;4.95;;;;;;;20.04;84.40;100121.64;1608937;87;25892;-68
2022/08/29 06:38:47;;;;;;;5.87;5.30;;;;;;;20.07;84.34;100122.83;1641295;85;25703;-67
2022/08/29 06:41:16;;;;;;;7.35;5.33;;;;;;;20.07;84.40;100133.81;1638737;86;27386;-67
2022/08/29 06:43:44;;;;;;;7.90;5.28;;;;;;;20.08;84.47;100129.31;1666055;84;25822;-68
2022/08/29 06:46:27;;;;;;;5.53;5.03;;;;;;;20.12;84.67;100136.99;1646260;84;25691;-68
2022/08/29 06:48:56;;;;;;;5.22;4.70;;;;;;;20.13;84.31;100136.43;1612321;87;25782;-68
2022/08/29 06:51:24;;;;;;;5.25;4.60;;;;;;;20.14;84.20;100141.55;1612412;87;25697;-68
2022/08/29 06:53:51;;;;;;;6.12;5.12;;;;;;;20.21;84.87;100151.00;1614921;87;28840;-68
2022/08/29 06:56:17;;;;;;;8.80;5.95;;;;;;;20.26;84.74;100150.09;1621269;87;25783;-68
2022/08/29 06:58:44;;;;;;;5.72;4.58;;;;;;;20.34;84.87;100155.05;1582970;88;25753;-68
2022/08/29 07:01:16;;;;;;;5.90;4.72;;;;;;;20.45;84.92;100148.27;1581503;88;25854;-69
2022/08/29 07:03:42;;;;;;;8.63;5.40;;;;;;;20.53;84.79;100159.53;1587406;88;25502;-69
2022/08/29 07:06:10;;;;;;;5.75;5.17;;;;;;;20.63;84.78;100160.82;1612379;87;27321;-69
2022/08/29 07:08:36;;;;;;;6.92;6.22;;;;;;;20.69;84.08;100166.95;1592129;88;25879;-69
2022/08/29 07:11:03;;;;;;;5.50;4.87;;;;;;;20.70;83.57;100158.93;1603112;88;25745;-69
2022/08/29 07:13:30;;;;;;;5.87;4.90;;;;;;;20.76;83.57;100160.73;1608462;86;26235;-69
2022/08/29 07:15:57;;;;;;;6.33;5.72;;;;;;;20.82;83.83;100163.91;1596210;88;25387;-69
2022/08/29 07:18:23;;;;;;;5.80;5.30;;;;;;;20.87;83.56;100164.92;1628503;87;27209;-68
2022/08/29 07:20:50;;;;;;;7.30;5.33;;;;;;;20.92;83.28;100171.44;1650106;85;26451;-68
2022/08/29 07:23:17;;;;;;;6.97;5.72;;;;;;;20.94;82.77;100164.96;1639721;86;25692;-69
2022/08/29 07:25:43;;;;;;;8.00;5.53;;;;;;;20.99;83.03;100174.82;1632445;84;25679;-69
2022/08/29 07:28:09;;;;;;;8.05;5.92;;;;;;;21.08;83.25;100174.70;1646501;86;25862;-69
2022/08/29 07:30:35;;;;;;;6.53;5.15;;;;;;;21.16;82.98;100178.27;1655612;85;27007;-69
2022/08/29 07:33:01;;;;;;;7.35;5.72;;;;;;;21.24;83.03;100174.38;1650783;86;25690;-69
2022/08/29 07:35:28;;;;;;;8.63;6.12;;;;;;;21.33;82.24;100187.01;1652280;86;25709;-69
2022/08/29 07:38:00;;;;;;;11.40;6.53;;;;;;;21.34;81.93;100190.75;1642790;86;25931;-70
2022/08/29 07:40:27;;;;;;;7.40;6.70;;;;;;;21.38;81.69;100186.05;1649562;86;25975;-75
2022/08/29 07:42:53;;;;;;;10.60;9.48;;;;;;;21.41;81.42;100196.88;1600545;87;27416;-74
2022/08/29 07:45:19;;;;;;;8.38;7.50;;;;;;;21.43;81.08;100194.53;1596341;88;25893;-73
2022/08/29 07:47:46;;;;;;;10.93;7.50;;;;;;;21.46;81.04;100196.52;1590174;87;25761;-74
2022/08/29 07:50:13;;;;;;;9.53;8.10;;;;;;;21.44;80.60;100196.12;1597320;88;26217;-73
2022/08/29 07:52:40;;;;;;;10.65;8.30;;;;;;;21.47;80.66;100200.08;1630571;86;25824;-69
2022/08/29 07:55:08;;;;;;;11.08;9.25;;;;;;;21.47;80.34;100206.39;1648738;86;27334;-70
2022/08/29 07:57:34;;;;;;;10.85;9.13;;;;;;;21.45;80.13;100207.30;1585214;87;25940;-70
2022/08/29 08:00:01;;;;;;;11.28;8.40;;;;;;;21.43;80.19;100204.16;1649839;86;25720;-70
2022/08/29 08:02:27;;;;;;;13.93;10.28;;;;;;;21.43;80.02;100206.31;1649213;85;25849;-70
2022/08/29 08:04:56;;;;;;;14.30;10.18;;;;;;;21.37;79.67;100211.22;1623855;86;25496;-70
2022/08/29 08:07:22;;;;;;;12.55;10.35;;;;;;;;;;1645395;86;27296;-69
2022/08/29 08:09:48;;;;;;;17.35;11.40;;;;;;;21.15;79.56;100208.33;1632340;85;25555;-69
2022/08/29 08:12:14;;;;;;;14.55;11.50;;;;;;;21.11;80.02;100213.59;1657141;84;25909;-68
2022/08/29 08:14:41;;;;;;;16.52;12.23;;;;;;;21.07;80.06;100216.32;1643366;86;25847;-68
2022/08/29 08:17:07;;;;;;;18.00;12.98;;;;;;;21.04;80.59;100213.77;1648238;86;25714;-70
2022/08/29 08:19:33;;;;;;;15.75;12.53;;;;;;;21.05;80.61;100215.92;1612774;86;29552;-69
2022/08/29 08:21:59;;;;;;;16.52;13.18;;;;;;;21.06;80.91;100216.91;1640558;86;25968;-70
2022/08/29 08:24:26;;;;;;;16.93;13.13;;;;;;;21.10;81.20;100220.28;1647070;86;25862;-70
2022/08/29 08:26:52;;;;;;;18.55;13.35;;;;;;;21.16;81.62;100220.11;1629124;86;25730;-69
2022/08/29 08:29:19;;;;;;;16.80;12.43;;;;;;;21.24;81.99;100217.61;1655662;84;25882;-69
2022/08/29 08:31:48;;;;;;;18.37;13.30;;;;;;;21.34;81.64;100223.77;1660277;84;27335;-69
2022/08/29 08:34:16;;;;;;;13.18;11.12;;;;;;;21.33;80.76;100233.77;1646387;86;25610;-69
2022/08/29 08:36:43;;;;;;;13.45;11.60;;;;;;;21.33;80.56;100234.55;1664640;84;26228;-69
2022/08/29 08:39:12;;;;;;;11.95;10.70;;;;;;;21.34;80.36;100234.77;1645555;86;25830;-67
2022/08/29 08:42:25;;;;;;;15.23;11.10;;;;;;;21.33;80.35;100236.52;1646531;85;25715;-68
2022/08/29 08:45:13;;;;;;;14.28;11.48;;;;;;;21.40;80.55;100239.31;1595203;89;27529;-68
2022/08/29 08:47:59;;;;;;;16.10;11.55;;;;;;;21.51;80.01;100241.58;1605108;87;25893;-69
2022/08/29 08:50:42;;;;;;;15.18;11.75;;;;;;;21.60;80.21;100243.38;1609645;87;26025;-68
2022/08/29 08:53:34;;;;;;;13.05;10.45;;;;;;;21.78;80.25;100246.83;1606828;87;27796;-68
2022/08/29 08:56:06;;;;;;;13.75;10.30;;;;;;;21.86;79.34;100249.80;1589478;89;25745;-67
2022/08/29 08:58:53;;;;;;;14.47;10.95;;;;;;;21.89;78.67;100239.98;1590223;88;27405;-67
2022/08/29 09:01:26;;;;;;;11.45;10.05;;;;;;;22.00;77.97;100254.59;1593152;88;25611;-68
2022/08/29 09:04:13;;;;;;;13.45;9.90;;;;;;;22.11;77.57;100250.48;1602238;88;25740;-67
2022/08/29 09:06:56;;;;;;;16.05;10.45;;;;;;;22.20;76.88;100251.70;1598735;88;26033;-67
2022/08/29 09:09:40;;;;;;;12.68;9.43;;;;;;;22.20;76.01;100253.08;1593670;87;25936;-69
2022/08/29 09:12:36;;;;;;;14.65;10.53;;;;;;;22.23;75.61;100258.39;1597152;87;27468;-70
2022/08/29 09:15:13;;;;;;;16.15;9.75;;;;;;;22.25;75.56;100271.17;1590395;88;25594;-69
2022/08/29 09:17:51;;;;;;;16.62;11.45;;;;;;;22.24;74.77;100267.46;1595013;88;25819;-67
2022/08/29 09:20:29;;;;;;;16.32;13.58;;;;;;;22.11;73.80;100272.52;1598546;86;27751;-68
2022/08/29 09:23:19;;;;;;;15.53;12.40;;;;;;;21.93;73.49;100269.12;1655888;85;25796;-69
2022/08/29 09:25:47;;;;;;;20.30;10.53;;;;;;;21.91;74.51;100268.70;1634765;86;29554;-69
2022/08/29 09:28:13;;;;;;;12.85;9.68;;;;;;;22.10;75.33;100270.93;1645163;84;25916;-69
2022/08/29 09:30:45;;;;;;;10.15;8.05;;;;;;;22.35;75.79;100273.80;1656876;85;25931;-73
2022/08/29 09:33:15;;;;;;;13.45;8.78;;;;;;;22.65;74.83;100269.94;1655318;85;26328;-69
2022/08/29 09:35:48;;;;;;;14.23;7.90;;;;;;;22.72;73.00;100265.80;1636182;86;25489;-68
2022/08/29 09:38:24;;;;;;;11.70;8.00;;;;;;;22.72;72.56;100269.94;1647035;85;27399;-67
2022/08/29 09:40:59;;;;;;;10.75;7.03;;;;;;;22.73;72.10;100273.69;1641189;86;25934;-68
2022/08/29 09:43:43;;;;;;;9.65;7.25;;;;;;;22.73;71.85;100270.92;1643369;85;25754;-68
2022/08/29 09:46:21;;;;;;;10.03;7.75;;;;;;;22.74;71.66;100276.62;1666432;85;26275;-68
2022/08/29 09:49:07;;;;;;;14.50;6.97;;;;;;;22.73;71.06;100274.25;1648863;86;33072;-70
2022/08/29 09:51:37;;;;;;;11.15;7.70;;;;;;;22.74;71.33;100270.33;1676300;84;27518;-69
2022/08/29 09:54:31;;;;;;;14.45;7.40;;;;;;;22.84;71.58;100277.04;1650299;86;25823;-69
2022/08/29 09:57:18;;;;;;;14.28;7.20;;;;;;;22.95;71.79;100276.43;1650080;85;25504;-67
2022/08/29 10:00:17;;;;;;;9.78;7.05;;;;;;;23.03;70.25;100284.13;1636289;86;26499;-68
2022/08/29 10:02:47;;;;;;;10.23;7.40;;;;;;;22.98;69.35;100284.52;1646647;86;26173;-70
2022/08/29 10:05:43;;;;;;;10.10;5.97;;;;;;;22.89;69.09;100284.32;1648980;85;28056;-70
2022/08/29 10:08:34;;;;;;;10.50;8.05;;;;;;;22.92;68.67;100282.77;1639745;85;25922;-69
2022/08/29 10:11:18;;;;;;;9.70;6.28;;;;;;;23.02;69.43;100281.97;1650299;84;25713;-69
2022/08/29 10:14:31;;;;;;;11.55;6.87;;;;;;;23.20;70.11;100283.36;1616085;87;25873;-68
2022/08/29 10:19:49;;;;;;;11.38;8.28;;;;;;;23.53;68.17;100275.03;1582779;87;27342;-69
2022/08/29 10:22:53;;;;;;;10.40;7.37;;;;;;;23.61;67.70;100272.45;1581525;88;25793;-73
2022/08/29 10:25:40;;;;;;;10.03;7.83;;;;;;;23.84;68.26;100274.78;1601363;87;25732;-69
2022/08/29 10:28:24;;;;;;;12.88;7.87;;;;;;;24.66;66.83;100272.80;1587447;89;25736;-68
2022/08/29 10:31:04;;;;;;;9.48;7.37;;;;;;;25.47;68.43;100278.04;1595019;89;25662;-69
2022/08/29 10:33:42;;;;;;;12.65;7.03;;;;;;;26.10;64.05;100269.41;1592421;89;27375;-69
2022/08/29 10:36:29;;;;;;;10.18;7.22;;;;;;;26.11;62.04;100274.37;1603195;87;25769;-69
2022/08/29 10:39:15;;;;;;;7.72;6.50;;;;;;;26.02;60.90;100286.75;1603881;88;25498;-68
2022/08/29 10:41:59;;;;;;;11.93;6.72;;;;;;;25.84;59.39;100281.98;1596276;89;25834;-69
2022/08/29 10:44:54;;;;;;;9.53;6.40;;;;;;;25.72;58.87;100286.86;1585593;88;25729;-68
2022/08/29 10:47:34;;;;;;;10.28;7.20;;;;;;;25.54;58.38;100291.83;1539907;92;27397;-68
2022/08/29 10:50:23;;;;;;;7.17;5.58;;;;;;;25.33;57.99;100290.83;1541011;91;25684;-67
2022/08/29 10:53:30;;;;;;;9.23;6.30;;;;;;;25.15;58.20;100286.83;1530772;92;25958;-69
2022/08/29 10:56:22;;;;;;;9.35;6.50;;;;;;;25.02;57.72;100291.89;1535247;92;26636;-68
2022/08/29 10:58:59;;;;;;;6.65;6.05;;;;;;;24.78;57.74;100285.53;1541215;90;25877;-70
2022/08/29 11:01:37;;;;;;;9.50;6.20;;;;;;;24.60;57.64;100287.63;1547849;90;27567;-69
2022/08/29 11:04:33;;;;;;;8.50;5.95;;;;;;;24.77;59.00;100285.94;1524258;93;26023;-69
2022/08/29 11:07:17;;;;;;;10.10;6.20;;;;;;;25.04;57.81;100295.80;1504437;94;25821;-66
2022/08/29 11:09:51;;;;;;;11.53;6.50;;;;;;;25.01;57.48;100291.69;1548722;92;25818;-69
2022/08/29 11:15:45;;;;;;;11.50;5.93;;;;;;;25.79;58.16;100278.30;1478157;94;29576;-69
2022/08/29 11:18:29;;;;;;;6.42;4.95;;;;;;;26.22;56.14;100279.96;1485335;94;25767;-69
2022/08/29 11:21:09;;;;;;;7.20;4.10;;;;;;;26.20;54.41;100285.11;1456418;96;25771;-70
2022/08/29 11:23:43;;;;;;;6.62;4.60;;;;;;;26.07;53.82;100291.05;1462723;97;25791;-68
2022/08/29 11:26:20;;;;;;;9.15;4.35;;;;;;;26.01;53.80;100289.94;1573933;89;25793;-69
2022/08/29 11:28:57;;;;;;;7.78;4.05;;;;;;;26.34;53.94;100288.32;1559377;88;27729;-69
2022/08/29 11:31:58;;;;;;;5.70;3.42;;;;;;;26.97;54.27;100284.20;1588295;89;25466;-68
2022/08/29 11:35:04;;;;;;;8.53;3.27;;;;;;;27.24;52.37;100293.08;1569066;88;25768;-68
2022/08/29 11:37:51;;;;;;;3.87;2.90;;;;;;;27.57;52.33;100289.33;1578218;88;25969;-69
2022/08/29 11:40:41;;;;;;;3.77;3.22;;;;;;;28.24;50.89;100285.61;1621179;85;25857;-70
2022/08/29 11:43:12;;;;;;;6.85;3.25;;;;;;;28.77;48.38;100280.66;1610924;87;28441;-69
2022/08/29 11:45:42;;;;;;;11.30;4.28;;;;;;;29.09;48.38;100298.58;1635183;86;26479;-70
2022/08/29 11:48:37;;;;;;;9.78;4.12;;;;;;;29.09;46.98;100298.58;1642168;86;25450;-69
2022/08/29 11:51:37;;;;;;;5.10;3.15;;;;;;;28.90;46.48;100300.25;1605076;88;25949;-69